sensor_id;sensor_type;location;lat;lon;timestamp;P1;durP1;ratioP1;P2;durP2;ratioP2
781;SDS011;374;52.568;13.402;2023-05-23T00:01:29;5.87;;;5.37;;
781;SDS011;374;52.568;13.402;2023-05-23T00:03:55;6.40;;;5.53;;
781;SDS011;374;52.568;13.402;2023-05-23T00:06:21;7.40;;;6.10;;
781;SDS011;374;52.568;13.402;2023-05-23T00:08:47;7.50;;;6.70;;
781;SDS011;374;52.568;13.402;2023-05-23T00:11:13;5.77;;;5.27;;
781;SDS011;374;52.568;13.402;2023-05-23T00:13:38;6.87;;;6.17;;
781;SDS011;374;52.568;13.402;2023-05-23T00:16:05;8.67;;;5.77;;
781;SDS011;374;52.568;13.402;2023-05-23T00:18:33;6.60;;;6.00;;
781;SDS011;374;52.568;13.402;2023-05-23T00:21:00;5.70;;;5.27;;
781;SDS011;374;52.568;13.402;2023-05-23T00:23:26;7.50;;;5.57;;
781;SDS011;374;52.568;13.402;2023-05-23T00:25:53;7.20;;;5.60;;
781;SDS011;374;52.568;13.402;2023-05-23T00:28:20;8.13;;;6.10;;
781;SDS011;374;52.568;13.402;2023-05-23T00:30:46;6.67;;;6.07;;
781;SDS011;374;52.568;13.402;2023-05-23T00:33:13;5.63;;;5.20;;
781;SDS011;374;52.568;13.402;2023-05-23T00:35:40;7.50;;;6.03;;
781;SDS011;374;52.568;13.402;2023-05-23T00:38:05;6.20;;;5.60;;
781;SDS011;374;52.568;13.402;2023-05-23T00:40:31;6.40;;;5.60;;
781;SDS011;374;52.568;13.402;2023-05-23T00:42:58;6.50;;;5.87;;
781;SDS011;374;52.568;13.402;2023-05-23T00:45:24;8.90;;;5.23;;
781;SDS011;374;52.568;13.402;2023-05-23T00:47:49;9.40;;;6.10;;
781;SDS011;374;52.568;13.402;2023-05-23T00:50:16;12.30;;;5.70;;
781;SDS011;374;52.568;13.402;2023-05-23T00:52:42;7.83;;;5.90;;
781;SDS011;374;52.568;13.402;2023-05-23T00:55:09;5.70;;;5.20;;
781;SDS011;374;52.568;13.402;2023-05-23T00:57:35;6.53;;;5.83;;
781;SDS011;374;52.568;13.402;2023-05-23T01:00:09;7.57;;;5.97;;
781;SDS011;374;52.568;13.402;2023-05-23T01:02:43;5.83;;;5.30;;
781;SDS011;374;52.568;13.402;2023-05-23T01:05:11;6.57;;;5.97;;
781;SDS011;374;52.568;13.402;2023-05-23T01:07:38;5.97;;;5.37;;
781;SDS011;374;52.568;13.402;2023-05-23T01:10:07;6.47;;;5.87;;
781;SDS011;374;52.568;13.402;2023-05-23T01:12:38;6.70;;;6.00;;
781;SDS011;374;52.568;13.402;2023-05-23T01:15:20;5.87;;;5.37;;
781;SDS011;374;52.568;13.402;2023-05-23T01:17:53;6.53;;;5.90;;
781;SDS011;374;52.568;13.402;2023-05-23T01:20:26;6.37;;;5.87;;
781;SDS011;374;52.568;13.402;2023-05-23T01:23:57;6.00;;;5.43;;
781;SDS011;374;52.568;13.402;2023-05-23T01:29:08;6.77;;;6.17;;
781;SDS011;374;52.568;13.402;2023-05-23T01:31:43;6.30;;;5.80;;
781;SDS011;374;52.568;13.402;2023-05-23T01:34:11;6.50;;;5.80;;
781;SDS011;374;52.568;13.402;2023-05-23T01:36:41;6.60;;;6.00;;
781;SDS011;374;52.568;13.402;2023-05-23T01:39:07;7.17;;;6.47;;
781;SDS011;374;52.568;13.402;2023-05-23T01:41:36;5.60;;;5.10;;
781;SDS011;374;52.568;13.402;2023-05-23T01:44:02;6.37;;;5.77;;
781;SDS011;374;52.568;13.402;2023-05-23T01:46:28;7.33;;;6.23;;
781;SDS011;374;52.568;13.402;2023-05-23T01:48:54;7.30;;;6.43;;
781;SDS011;374;52.568;13.402;2023-05-23T01:51:22;6.60;;;6.00;;
781;SDS011;374;52.568;13.402;2023-05-23T01:53:48;7.73;;;6.70;;
781;SDS011;374;52.568;13.402;2023-05-23T01:56:15;8.60;;;6.67;;
781;SDS011;374;52.568;13.402;2023-05-23T01:58:41;8.40;;;7.60;;
781;SDS011;374;52.568;13.402;2023-05-23T02:01:07;7.60;;;6.80;;
781;SDS011;374;52.568;13.402;2023-05-23T02:03:33;8.47;;;7.60;;
781;SDS011;374;52.568;13.402;2023-05-23T02:05:59;8.13;;;7.33;;
781;SDS011;374;52.568;13.402;2023-05-23T02:08:25;8.10;;;6.90;;
781;SDS011;374;52.568;13.402;2023-05-23T02:10:50;8.33;;;7.43;;
781;SDS011;374;52.568;13.402;2023-05-23T02:13:16;7.53;;;6.73;;
781;SDS011;374;52.568;13.402;2023-05-23T02:15:41;7.13;;;6.53;;
781;SDS011;374;52.568;13.402;2023-05-23T02:18:07;7.07;;;6.47;;
781;SDS011;374;52.568;13.402;2023-05-23T02:20:32;6.20;;;5.70;;
781;SDS011;374;52.568;13.402;2023-05-23T02:22:58;7.57;;;6.63;;
781;SDS011;374;52.568;13.402;2023-05-23T02:25:23;6.30;;;5.70;;
781;SDS011;374;52.568;13.402;2023-05-23T02:27:49;7.07;;;6.40;;
781;SDS011;374;52.568;13.402;2023-05-23T02:30:14;7.20;;;6.47;;
781;SDS011;374;52.568;13.402;2023-05-23T02:32:40;6.10;;;5.60;;
781;SDS011;374;52.568;13.402;2023-05-23T02:35:05;6.70;;;6.10;;
781;SDS011;374;52.568;13.402;2023-05-23T02:37:31;5.87;;;5.27;;
781;SDS011;374;52.568;13.402;2023-05-23T02:39:56;6.20;;;5.70;;
781;SDS011;374;52.568;13.402;2023-05-23T02:42:22;5.70;;;5.30;;
781;SDS011;374;52.568;13.402;2023-05-23T02:44:47;6.27;;;5.77;;
781;SDS011;374;52.568;13.402;2023-05-23T02:47:13;5.83;;;5.33;;
781;SDS011;374;52.568;13.402;2023-05-23T02:49:38;6.73;;;6.07;;
781;SDS011;374;52.568;13.402;2023-05-23T02:52:04;6.67;;;6.07;;
781;SDS011;374;52.568;13.402;2023-05-23T02:54:31;6.70;;;6.00;;
781;SDS011;374;52.568;13.402;2023-05-23T02:56:56;6.67;;;6.07;;
781;SDS011;374;52.568;13.402;2023-05-23T02:59:22;6.07;;;5.57;;
781;SDS011;374;52.568;13.402;2023-05-23T03:01:47;6.40;;;5.80;;
781;SDS011;374;52.568;13.402;2023-05-23T03:04:13;7.03;;;6.33;;
781;SDS011;374;52.568;13.402;2023-05-23T03:06:39;8.07;;;5.97;;
781;SDS011;374;52.568;13.402;2023-05-23T03:09:06;6.43;;;5.83;;
781;SDS011;374;52.568;13.402;2023-05-23T03:11:32;5.93;;;5.47;;
781;SDS011;374;52.568;13.402;2023-05-23T03:13:58;6.43;;;5.80;;
781;SDS011;374;52.568;13.402;2023-05-23T03:16:23;12.87;;;6.97;;
781;SDS011;374;52.568;13.402;2023-05-23T03:18:49;6.90;;;6.20;;
781;SDS011;374;52.568;13.402;2023-05-23T03:21:14;7.20;;;6.50;;
781;SDS011;374;52.568;13.402;2023-05-23T03:23:40;7.67;;;6.13;;
781;SDS011;374;52.568;13.402;2023-05-23T03:26:05;6.40;;;5.90;;
781;SDS011;374;52.568;13.402;2023-05-23T03:28:31;6.10;;;5.60;;
781;SDS011;374;52.568;13.402;2023-05-23T03:30:57;6.67;;;6.07;;
781;SDS011;374;52.568;13.402;2023-05-23T03:33:23;6.67;;;6.17;;
781;SDS011;374;52.568;13.402;2023-05-23T03:35:48;7.23;;;6.60;;
781;SDS011;374;52.568;13.402;2023-05-23T03:38:15;7.13;;;6.53;;
781;SDS011;374;52.568;13.402;2023-05-23T03:40:40;7.60;;;6.30;;
781;SDS011;374;52.568;13.402;2023-05-23T03:43:07;7.13;;;6.43;;
781;SDS011;374;52.568;13.402;2023-05-23T03:45:33;7.37;;;6.67;;
781;SDS011;374;52.568;13.402;2023-05-23T03:47:59;7.60;;;6.87;;
781;SDS011;374;52.568;13.402;2023-05-23T03:50:25;7.70;;;6.10;;
781;SDS011;374;52.568;13.402;2023-05-23T03:52:51;7.17;;;6.47;;
781;SDS011;374;52.568;13.402;2023-05-23T03:55:17;8.33;;;6.10;;
781;SDS011;374;52.568;13.402;2023-05-23T03:57:46;8.00;;;6.70;;
781;SDS011;374;52.568;13.402;2023-05-23T04:00:12;7.00;;;6.40;;
781;SDS011;374;52.568;13.402;2023-05-23T04:02:38;8.67;;;6.27;;
781;SDS011;374;52.568;13.402;2023-05-23T04:05:04;8.67;;;6.50;;
781;SDS011;374;52.568;13.402;2023-05-23T04:07:30;6.40;;;5.90;;
781;SDS011;374;52.568;13.402;2023-05-23T04:09:58;7.33;;;6.60;;
781;SDS011;374;52.568;13.402;2023-05-23T04:12:24;8.77;;;7.17;;
781;SDS011;374;52.568;13.402;2023-05-23T04:14:50;7.17;;;6.43;;
781;SDS011;374;52.568;13.402;2023-05-23T04:17:15;8.83;;;6.73;;
781;SDS011;374;52.568;13.402;2023-05-23T04:19:40;9.50;;;7.67;;
781;SDS011;374;52.568;13.402;2023-05-23T04:22:06;8.30;;;7.40;;
781;SDS011;374;52.568;13.402;2023-05-23T04:24:31;8.47;;;6.97;;
781;SDS011;374;52.568;13.402;2023-05-23T04:26:57;7.03;;;5.90;;
781;SDS011;374;52.568;13.402;2023-05-23T04:29:23;7.83;;;7.03;;
781;SDS011;374;52.568;13.402;2023-05-23T04:31:50;8.27;;;7.03;;
781;SDS011;374;52.568;13.402;2023-05-23T04:34:15;6.80;;;6.20;;
781;SDS011;374;52.568;13.402;2023-05-23T04:36:41;7.53;;;6.67;;
781;SDS011;374;52.568;13.402;2023-05-23T04:39:08;10.20;;;6.70;;
781;SDS011;374;52.568;13.402;2023-05-23T04:41:34;7.77;;;6.97;;
781;SDS011;374;52.568;13.402;2023-05-23T04:44:00;7.80;;;6.70;;
781;SDS011;374;52.568;13.402;2023-05-23T04:46:26;9.00;;;7.07;;
781;SDS011;374;52.568;13.402;2023-05-23T04:48:52;7.60;;;6.87;;
781;SDS011;374;52.568;13.402;2023-05-23T04:51:19;10.47;;;7.30;;
781;SDS011;374;52.568;13.402;2023-05-23T04:53:45;7.93;;;7.13;;
781;SDS011;374;52.568;13.402;2023-05-23T04:56:14;9.33;;;7.90;;
781;SDS011;374;52.568;13.402;2023-05-23T04:58:41;8.03;;;7.23;;
781;SDS011;374;52.568;13.402;2023-05-23T05:01:09;7.40;;;6.70;;
781;SDS011;374;52.568;13.402;2023-05-23T05:03:35;8.00;;;7.20;;
781;SDS011;374;52.568;13.402;2023-05-23T05:06:01;12.70;;;7.17;;
781;SDS011;374;52.568;13.402;2023-05-23T05:08:28;8.73;;;7.50;;
781;SDS011;374;52.568;13.402;2023-05-23T05:10:53;8.43;;;7.70;;
781;SDS011;374;52.568;13.402;2023-05-23T05:13:19;8.50;;;7.60;;
781;SDS011;374;52.568;13.402;2023-05-23T05:15:45;9.33;;;8.43;;
781;SDS011;374;52.568;13.402;2023-05-23T05:18:11;9.37;;;8.47;;
781;SDS011;374;52.568;13.402;2023-05-23T05:20:37;10.00;;;8.57;;
781;SDS011;374;52.568;13.402;2023-05-23T05:23:03;7.90;;;7.20;;
781;SDS011;374;52.568;13.402;2023-05-23T05:25:28;8.43;;;7.60;;
781;SDS011;374;52.568;13.402;2023-05-23T05:27:55;10.33;;;7.73;;
781;SDS011;374;52.568;13.402;2023-05-23T05:30:26;7.30;;;6.40;;
781;SDS011;374;52.568;13.402;2023-05-23T05:32:52;9.17;;;7.47;;
781;SDS011;374;52.568;13.402;2023-05-23T05:35:17;8.37;;;7.50;;
781;SDS011;374;52.568;13.402;2023-05-23T05:37:43;8.80;;;7.30;;
781;SDS011;374;52.568;13.402;2023-05-23T05:40:08;8.77;;;7.40;;
781;SDS011;374;52.568;13.402;2023-05-23T05:42:34;8.23;;;7.43;;
781;SDS011;374;52.568;13.402;2023-05-23T05:45:00;7.93;;;7.30;;
781;SDS011;374;52.568;13.402;2023-05-23T05:47:25;7.77;;;6.97;;
781;SDS011;374;52.568;13.402;2023-05-23T05:49:51;8.17;;;7.40;;
781;SDS011;374;52.568;13.402;2023-05-23T05:52:16;9.60;;;7.67;;
781;SDS011;374;52.568;13.402;2023-05-23T05:54:42;7.80;;;7.00;;
781;SDS011;374;52.568;13.402;2023-05-23T05:57:07;11.33;;;8.43;;
781;SDS011;374;52.568;13.402;2023-05-23T05:59:33;14.00;;;7.93;;
781;SDS011;374;52.568;13.402;2023-05-23T06:01:58;12.80;;;7.87;;
781;SDS011;374;52.568;13.402;2023-05-23T06:04:24;13.50;;;8.53;;
781;SDS011;374;52.568;13.402;2023-05-23T06:06:50;15.60;;;8.50;;
781;SDS011;374;52.568;13.402;2023-05-23T06:09:16;7.77;;;6.97;;
781;SDS011;374;52.568;13.402;2023-05-23T06:11:41;9.10;;;8.20;;
781;SDS011;374;52.568;13.402;2023-05-23T06:14:07;13.13;;;8.40;;
781;SDS011;374;52.568;13.402;2023-05-23T06:16:33;8.40;;;7.40;;
781;SDS011;374;52.568;13.402;2023-05-23T06:18:58;10.50;;;7.53;;
781;SDS011;374;52.568;13.402;2023-05-23T06:21:24;12.13;;;7.00;;
781;SDS011;374;52.568;13.402;2023-05-23T06:23:49;14.00;;;7.57;;
781;SDS011;374;52.568;13.402;2023-05-23T06:26:16;7.83;;;7.13;;
781;SDS011;374;52.568;13.402;2023-05-23T06:28:41;9.37;;;7.80;;
781;SDS011;374;52.568;13.402;2023-05-23T06:31:07;13.20;;;8.47;;
781;SDS011;374;52.568;13.402;2023-05-23T06:33:34;8.57;;;7.60;;
781;SDS011;374;52.568;13.402;2023-05-23T06:36:00;10.97;;;9.87;;
781;SDS011;374;52.568;13.402;2023-05-23T06:38:25;13.40;;;8.00;;
781;SDS011;374;52.568;13.402;2023-05-23T06:40:53;9.20;;;8.40;;
781;SDS011;374;52.568;13.402;2023-05-23T06:43:19;11.43;;;8.20;;
781;SDS011;374;52.568;13.402;2023-05-23T06:45:45;10.97;;;8.10;;
781;SDS011;374;52.568;13.402;2023-05-23T06:48:13;11.80;;;8.80;;
781;SDS011;374;52.568;13.402;2023-05-23T06:50:39;10.10;;;7.63;;
781;SDS011;374;52.568;13.402;2023-05-23T06:53:05;16.70;;;9.33;;
781;SDS011;374;52.568;13.402;2023-05-23T06:55:30;11.43;;;7.83;;
781;SDS011;374;52.568;13.402;2023-05-23T06:57:57;9.43;;;7.93;;
781;SDS011;374;52.568;13.402;2023-05-23T07:00:24;7.80;;;7.10;;
781;SDS011;374;52.568;13.402;2023-05-23T07:02:49;10.50;;;7.97;;
781;SDS011;374;52.568;13.402;2023-05-23T07:05:15;11.00;;;8.00;;
781;SDS011;374;52.568;13.402;2023-05-23T07:07:41;10.47;;;8.40;;
781;SDS011;374;52.568;13.402;2023-05-23T07:10:07;9.57;;;8.57;;
781;SDS011;374;52.568;13.402;2023-05-23T07:12:33;11.03;;;7.83;;
781;SDS011;374;52.568;13.402;2023-05-23T07:14:59;14.90;;;8.73;;
781;SDS011;374;52.568;13.402;2023-05-23T07:17:24;11.87;;;8.50;;
781;SDS011;374;52.568;13.402;2023-05-23T07:19:50;12.37;;;8.97;;
781;SDS011;374;52.568;13.402;2023-05-23T07:22:15;9.83;;;8.00;;
781;SDS011;374;52.568;13.402;2023-05-23T07:24:41;9.77;;;8.77;;
781;SDS011;374;52.568;13.402;2023-05-23T07:27:06;10.17;;;8.13;;
781;SDS011;374;52.568;13.402;2023-05-23T07:29:32;10.23;;;8.43;;
781;SDS011;374;52.568;13.402;2023-05-23T07:31:57;9.50;;;8.17;;
781;SDS011;374;52.568;13.402;2023-05-23T07:34:23;8.73;;;8.00;;
781;SDS011;374;52.568;13.402;2023-05-23T07:36:50;9.80;;;8.80;;
781;SDS011;374;52.568;13.402;2023-05-23T07:39:16;9.40;;;8.13;;
781;SDS011;374;52.568;13.402;2023-05-23T07:41:45;10.30;;;9.20;;
781;SDS011;374;52.568;13.402;2023-05-23T07:44:11;9.40;;;8.43;;
781;SDS011;374;52.568;13.402;2023-05-23T07:46:37;10.60;;;8.70;;
781;SDS011;374;52.568;13.402;2023-05-23T07:49:02;11.33;;;9.20;;
781;SDS011;374;52.568;13.402;2023-05-23T07:51:28;9.10;;;8.07;;
781;SDS011;374;52.568;13.402;2023-05-23T07:53:53;10.23;;;8.83;;
781;SDS011;374;52.568;13.402;2023-05-23T07:56:19;9.27;;;8.37;;
781;SDS011;374;52.568;13.402;2023-05-23T07:58:44;8.53;;;7.47;;
781;SDS011;374;52.568;13.402;2023-05-23T08:01:10;9.27;;;8.23;;
781;SDS011;374;52.568;13.402;2023-05-23T08:03:35;8.10;;;7.20;;
781;SDS011;374;52.568;13.402;2023-05-23T08:06:01;10.60;;;8.10;;
781;SDS011;374;52.568;13.402;2023-05-23T08:08:27;8.63;;;7.37;;
781;SDS011;374;52.568;13.402;2023-05-23T08:10:52;10.43;;;7.70;;
781;SDS011;374;52.568;13.402;2023-05-23T08:13:17;9.47;;;8.50;;
781;SDS011;374;52.568;13.402;2023-05-23T08:15:43;8.70;;;7.90;;
781;SDS011;374;52.568;13.402;2023-05-23T08:18:09;9.40;;;8.00;;
781;SDS011;374;52.568;13.402;2023-05-23T08:20:35;9.20;;;7.33;;
781;SDS011;374;52.568;13.402;2023-05-23T08:23:00;8.90;;;8.00;;
781;SDS011;374;52.568;13.402;2023-05-23T08:25:26;9.83;;;8.83;;
781;SDS011;374;52.568;13.402;2023-05-23T08:27:54;9.17;;;8.23;;
781;SDS011;374;52.568;13.402;2023-05-23T08:30:21;8.13;;;7.43;;
781;SDS011;374;52.568;13.402;2023-05-23T08:32:47;8.53;;;7.87;;
781;SDS011;374;52.568;13.402;2023-05-23T08:35:12;10.07;;;8.07;;
781;SDS011;374;52.568;13.402;2023-05-23T08:37:38;8.20;;;7.47;;
781;SDS011;374;52.568;13.402;2023-05-23T08:40:05;11.67;;;8.00;;
781;SDS011;374;52.568;13.402;2023-05-23T08:42:36;9.00;;;8.20;;
781;SDS011;374;52.568;13.402;2023-05-23T08:45:01;10.10;;;8.17;;
781;SDS011;374;52.568;13.402;2023-05-23T08:47:27;8.60;;;7.10;;
781;SDS011;374;52.568;13.402;2023-05-23T08:49:54;7.80;;;7.10;;
781;SDS011;374;52.568;13.402;2023-05-23T08:52:20;8.50;;;7.57;;
781;SDS011;374;52.568;13.402;2023-05-23T08:54:49;8.20;;;7.50;;
781;SDS011;374;52.568;13.402;2023-05-23T08:57:15;11.87;;;8.10;;
781;SDS011;374;52.568;13.402;2023-05-23T08:59:41;8.30;;;7.70;;
781;SDS011;374;52.568;13.402;2023-05-23T09:02:07;8.77;;;8.00;;
781;SDS011;374;52.568;13.402;2023-05-23T09:04:36;8.80;;;7.90;;
781;SDS011;374;52.568;13.402;2023-05-23T09:07:01;9.27;;;8.47;;
781;SDS011;374;52.568;13.402;2023-05-23T09:09:28;9.33;;;8.53;;
781;SDS011;374;52.568;13.402;2023-05-23T09:11:54;11.43;;;10.20;;
781;SDS011;374;52.568;13.402;2023-05-23T09:14:23;9.57;;;8.87;;
781;SDS011;374;52.568;13.402;2023-05-23T09:16:49;10.70;;;9.70;;
781;SDS011;374;52.568;13.402;2023-05-23T09:19:14;10.70;;;9.70;;
781;SDS011;374;52.568;13.402;2023-05-23T09:21:43;9.93;;;8.80;;
781;SDS011;374;52.568;13.402;2023-05-23T09:24:09;10.30;;;9.40;;
781;SDS011;374;52.568;13.402;2023-05-23T09:26:35;11.83;;;9.33;;
781;SDS011;374;52.568;13.402;2023-05-23T09:29:03;11.17;;;10.17;;
781;SDS011;374;52.568;13.402;2023-05-23T09:31:31;10.10;;;9.30;;
781;SDS011;374;52.568;13.402;2023-05-23T09:33:56;9.90;;;8.97;;
781;SDS011;374;52.568;13.402;2023-05-23T09:36:26;11.13;;;10.00;;
781;SDS011;374;52.568;13.402;2023-05-23T09:39:01;10.50;;;9.63;;
781;SDS011;374;52.568;13.402;2023-05-23T09:41:32;11.23;;;9.77;;
781;SDS011;374;52.568;13.402;2023-05-23T09:43:59;10.23;;;9.37;;
781;SDS011;374;52.568;13.402;2023-05-23T09:46:30;12.23;;;10.50;;
781;SDS011;374;52.568;13.402;2023-05-23T09:48:58;17.03;;;9.73;;
781;SDS011;374;52.568;13.402;2023-05-23T09:51:24;12.33;;;11.30;;
781;SDS011;374;52.568;13.402;2023-05-23T09:53:50;12.10;;;10.80;;
781;SDS011;374;52.568;13.402;2023-05-23T09:56:16;18.60;;;17.00;;
781;SDS011;374;52.568;13.402;2023-05-23T09:58:45;13.27;;;12.10;;
781;SDS011;374;52.568;13.402;2023-05-23T10:01:11;11.87;;;10.77;;
781;SDS011;374;52.568;13.402;2023-05-23T10:03:39;15.63;;;14.03;;
781;SDS011;374;52.568;13.402;2023-05-23T10:06:16;11.90;;;10.80;;
781;SDS011;374;52.568;13.402;2023-05-23T10:08:53;11.43;;;10.27;;
781;SDS011;374;52.568;13.402;2023-05-23T10:13:58;10.37;;;9.57;;
781;SDS011;374;52.568;13.402;2023-05-23T10:16:43;10.23;;;9.30;;
781;SDS011;374;52.568;13.402;2023-05-23T10:19:19;9.87;;;9.17;;
781;SDS011;374;52.568;13.402;2023-05-23T10:21:57;9.97;;;9.23;;
781;SDS011;374;52.568;13.402;2023-05-23T10:24:24;10.17;;;9.37;;
781;SDS011;374;52.568;13.402;2023-05-23T10:26:53;9.10;;;8.50;;
781;SDS011;374;52.568;13.402;2023-05-23T10:29:22;9.73;;;8.93;;
781;SDS011;374;52.568;13.402;2023-05-23T10:31:49;10.50;;;9.57;;
781;SDS011;374;52.568;13.402;2023-05-23T10:36:58;10.37;;;9.57;;
781;SDS011;374;52.568;13.402;2023-05-23T10:42:34;14.33;;;13.13;;
781;SDS011;374;52.568;13.402;2023-05-23T10:45:18;12.43;;;11.20;;
781;SDS011;374;52.568;13.402;2023-05-23T10:47:49;11.17;;;10.27;;
781;SDS011;374;52.568;13.402;2023-05-23T10:50:34;10.60;;;9.80;;
781;SDS011;374;52.568;13.402;2023-05-23T10:53:05;11.63;;;10.60;;
781;SDS011;374;52.568;13.402;2023-05-23T10:55:34;11.50;;;10.50;;
781;SDS011;374;52.568;13.402;2023-05-23T10:58:07;12.10;;;10.90;;
781;SDS011;374;52.568;13.402;2023-05-23T11:00:46;12.70;;;11.70;;
781;SDS011;374;52.568;13.402;2023-05-23T11:03:18;12.70;;;11.60;;
781;SDS011;374;52.568;13.402;2023-05-23T11:06:27;12.87;;;11.87;;
781;SDS011;374;52.568;13.402;2023-05-23T11:09:00;14.70;;;13.23;;
781;SDS011;374;52.568;13.402;2023-05-23T11:11:50;13.43;;;12.33;;
781;SDS011;374;52.568;13.402;2023-05-23T11:16:55;15.50;;;13.93;;
781;SDS011;374;52.568;13.402;2023-05-23T11:19:21;15.93;;;14.33;;
781;SDS011;374;52.568;13.402;2023-05-23T11:21:56;14.30;;;13.10;;
781;SDS011;374;52.568;13.402;2023-05-23T11:27:33;15.00;;;13.70;;
781;SDS011;374;52.568;13.402;2023-05-23T11:32:41;13.80;;;12.67;;
781;SDS011;374;52.568;13.402;2023-05-23T11:35:13;14.90;;;13.60;;
781;SDS011;374;52.568;13.402;2023-05-23T11:37:40;15.87;;;14.47;;
781;SDS011;374;52.568;13.402;2023-05-23T11:42:56;17.50;;;15.87;;
781;SDS011;374;52.568;13.402;2023-05-23T11:45:23;18.50;;;16.60;;
781;SDS011;374;52.568;13.402;2023-05-23T11:47:49;17.77;;;16.07;;
781;SDS011;374;52.568;13.402;2023-05-23T11:50:15;16.70;;;15.20;;
781;SDS011;374;52.568;13.402;2023-05-23T11:52:41;17.73;;;16.13;;
781;SDS011;374;52.568;13.402;2023-05-23T11:55:07;17.70;;;15.90;;
781;SDS011;374;52.568;13.402;2023-05-23T11:57:36;17.80;;;16.00;;
781;SDS011;374;52.568;13.402;2023-05-23T12:00:02;17.83;;;16.13;;
781;SDS011;374;52.568;13.402;2023-05-23T12:02:30;19.43;;;17.63;;
781;SDS011;374;52.568;13.402;2023-05-23T12:04:55;19.13;;;17.20;;
781;SDS011;374;52.568;13.402;2023-05-23T12:07:21;17.70;;;16.00;;
781;SDS011;374;52.568;13.402;2023-05-23T12:09:46;15.97;;;14.20;;
781;SDS011;374;52.568;13.402;2023-05-23T12:12:13;16.07;;;14.67;;
781;SDS011;374;52.568;13.402;2023-05-23T12:14:39;16.23;;;14.73;;
781;SDS011;374;52.568;13.402;2023-05-23T12:17:11;18.07;;;16.40;;
781;SDS011;374;52.568;13.402;2023-05-23T12:19:37;17.70;;;16.00;;
781;SDS011;374;52.568;13.402;2023-05-23T12:22:06;17.70;;;16.00;;
781;SDS011;374;52.568;13.402;2023-05-23T12:24:32;18.50;;;16.50;;
781;SDS011;374;52.568;13.402;2023-05-23T12:26:58;17.83;;;16.03;;
781;SDS011;374;52.568;13.402;2023-05-23T12:29:29;19.87;;;15.77;;
781;SDS011;374;52.568;13.402;2023-05-23T12:31:59;17.73;;;15.93;;
781;SDS011;374;52.568;13.402;2023-05-23T12:34:27;19.30;;;17.00;;
781;SDS011;374;52.568;13.402;2023-05-23T12:36:56;18.53;;;16.73;;
781;SDS011;374;52.568;13.402;2023-05-23T12:39:28;20.30;;;18.30;;
781;SDS011;374;52.568;13.402;2023-05-23T12:42:10;20.13;;;18.20;;
781;SDS011;374;52.568;13.402;2023-05-23T12:44:35;19.87;;;17.77;;
781;SDS011;374;52.568;13.402;2023-05-23T12:47:04;20.63;;;18.60;;
781;SDS011;374;52.568;13.402;2023-05-23T12:49:29;18.03;;;16.43;;
781;SDS011;374;52.568;13.402;2023-05-23T12:51:55;19.47;;;17.43;;
781;SDS011;374;52.568;13.402;2023-05-23T12:54:21;19.60;;;17.50;;
781;SDS011;374;52.568;13.402;2023-05-23T12:56:46;19.80;;;17.70;;
781;SDS011;374;52.568;13.402;2023-05-23T12:59:12;17.30;;;15.43;;
781;SDS011;374;52.568;13.402;2023-05-23T13:01:37;18.30;;;16.50;;
781;SDS011;374;52.568;13.402;2023-05-23T13:04:03;22.30;;;18.53;;
781;SDS011;374;52.568;13.402;2023-05-23T13:06:28;17.27;;;15.57;;
781;SDS011;374;52.568;13.402;2023-05-23T13:08:54;18.20;;;16.40;;
781;SDS011;374;52.568;13.402;2023-05-23T13:11:20;18.80;;;16.97;;
781;SDS011;374;52.568;13.402;2023-05-23T13:13:49;19.40;;;17.60;;
781;SDS011;374;52.568;13.402;2023-05-23T13:16:15;18.83;;;17.07;;
781;SDS011;374;52.568;13.402;2023-05-23T13:18:41;18.43;;;16.53;;
781;SDS011;374;52.568;13.402;2023-05-23T13:21:06;17.40;;;15.80;;
781;SDS011;374;52.568;13.402;2023-05-23T13:23:32;19.00;;;17.10;;
781;SDS011;374;52.568;13.402;2023-05-23T13:25:58;17.97;;;16.13;;
781;SDS011;374;52.568;13.402;2023-05-23T13:28:23;20.03;;;17.93;;
781;SDS011;374;52.568;13.402;2023-05-23T13:30:49;18.77;;;16.87;;
781;SDS011;374;52.568;13.402;2023-05-23T13:33:15;20.13;;;18.10;;
781;SDS011;374;52.568;13.402;2023-05-23T13:35:40;18.70;;;16.80;;
781;SDS011;374;52.568;13.402;2023-05-23T13:38:06;18.93;;;17.20;;
781;SDS011;374;52.568;13.402;2023-05-23T13:40:32;20.73;;;18.63;;
781;SDS011;374;52.568;13.402;2023-05-23T13:42:57;21.90;;;18.00;;
781;SDS011;374;52.568;13.402;2023-05-23T13:45:23;23.00;;;19.73;;
781;SDS011;374;52.568;13.402;2023-05-23T13:47:49;23.43;;;19.20;;
781;SDS011;374;52.568;13.402;2023-05-23T13:50:14;22.60;;;17.90;;
781;SDS011;374;52.568;13.402;2023-05-23T13:52:40;20.77;;;17.90;;
781;SDS011;374;52.568;13.402;2023-05-23T13:55:06;25.57;;;19.37;;
781;SDS011;374;52.568;13.402;2023-05-23T13:57:33;19.77;;;17.67;;
781;SDS011;374;52.568;13.402;2023-05-23T13:59:58;25.10;;;17.97;;
781;SDS011;374;52.568;13.402;2023-05-23T14:02:24;18.83;;;16.90;;
781;SDS011;374;52.568;13.402;2023-05-23T14:04:51;18.53;;;16.53;;
781;SDS011;374;52.568;13.402;2023-05-23T14:07:17;20.80;;;18.70;;
781;SDS011;374;52.568;13.402;2023-05-23T14:09:42;22.33;;;18.50;;
781;SDS011;374;52.568;13.402;2023-05-23T14:12:08;20.80;;;18.40;;
781;SDS011;374;52.568;13.402;2023-05-23T14:14:33;21.10;;;18.90;;
781;SDS011;374;52.568;13.402;2023-05-23T14:16:59;20.77;;;18.17;;
781;SDS011;374;52.568;13.402;2023-05-23T14:19:25;22.83;;;18.20;;
781;SDS011;374;52.568;13.402;2023-05-23T14:21:50;20.47;;;17.93;;
781;SDS011;374;52.568;13.402;2023-05-23T14:24:16;22.83;;;17.40;;
781;SDS011;374;52.568;13.402;2023-05-23T14:26:41;19.60;;;16.13;;
781;SDS011;374;52.568;13.402;2023-05-23T14:29:07;19.63;;;17.57;;
781;SDS011;374;52.568;13.402;2023-05-23T14:31:32;20.67;;;16.70;;
781;SDS011;374;52.568;13.402;2023-05-23T14:33:58;18.40;;;16.17;;
781;SDS011;374;52.568;13.402;2023-05-23T14:36:23;20.47;;;16.10;;
781;SDS011;374;52.568;13.402;2023-05-23T14:38:50;16.47;;;14.83;;
781;SDS011;374;52.568;13.402;2023-05-23T14:41:15;15.20;;;13.60;;
781;SDS011;374;52.568;13.402;2023-05-23T14:43:41;17.20;;;15.20;;
781;SDS011;374;52.568;13.402;2023-05-23T14:46:06;16.17;;;14.47;;
781;SDS011;374;52.568;13.402;2023-05-23T14:48:32;17.10;;;15.00;;
781;SDS011;374;52.568;13.402;2023-05-23T14:50:58;16.83;;;15.03;;
781;SDS011;374;52.568;13.402;2023-05-23T14:53:25;16.27;;;13.87;;
781;SDS011;374;52.568;13.402;2023-05-23T14:55:54;16.60;;;14.53;;
781;SDS011;374;52.568;13.402;2023-05-23T14:58:20;15.60;;;13.93;;
781;SDS011;374;52.568;13.402;2023-05-23T15:00:46;15.50;;;13.87;;
781;SDS011;374;52.568;13.402;2023-05-23T15:03:12;12.77;;;11.53;;
781;SDS011;374;52.568;13.402;2023-05-23T15:05:39;13.10;;;11.70;;
781;SDS011;374;52.568;13.402;2023-05-23T15:08:04;14.53;;;10.17;;
781;SDS011;374;52.568;13.402;2023-05-23T15:10:30;12.40;;;9.50;;
781;SDS011;374;52.568;13.402;2023-05-23T15:12:56;10.20;;;9.20;;
781;SDS011;374;52.568;13.402;2023-05-23T15:15:21;9.13;;;8.33;;
781;SDS011;374;52.568;13.402;2023-05-23T15:17:48;9.10;;;8.03;;
781;SDS011;374;52.568;13.402;2023-05-23T15:20:14;8.40;;;7.70;;
781;SDS011;374;52.568;13.402;2023-05-23T15:22:40;9.13;;;7.87;;
781;SDS011;374;52.568;13.402;2023-05-23T15:25:06;8.23;;;7.50;;
781;SDS011;374;52.568;13.402;2023-05-23T15:27:33;10.20;;;7.83;;
781;SDS011;374;52.568;13.402;2023-05-23T15:29:58;9.80;;;8.90;;
781;SDS011;374;52.568;13.402;2023-05-23T15:32:24;9.00;;;8.23;;
781;SDS011;374;52.568;13.402;2023-05-23T15:34:52;8.33;;;7.60;;
781;SDS011;374;52.568;13.402;2023-05-23T15:37:18;8.00;;;7.27;;
781;SDS011;374;52.568;13.402;2023-05-23T15:39:43;7.20;;;6.60;;